Cayucos, California
Current Conditions -  °F | °C
As of 1:56 AM on Tuesday 21 Oct 2014 (Local Time) from KSBP Reporting Station
Clear Clear  
Wind Chill: 63°   Ceiling: Unl
Heat Index: 63°   Visibility: 10mi
Dew Point: 49°   Wind: 15mph
Humidity: 60%   Direction: 340°NNW
Pressure: 30"   Gusts: 23mph
Location:  35.44°N, 120.89°W
Report Text: KSBP 210856Z 34013G20KT 10SM CLR 17/09 A3000 RMK AO2 SLP156 T01720094 53005
Loading
Personal Weather Stations






























Interactive Weather Map
Tropical Storm Tracking
New forecast layout! Learn more

10-Day Weather Forecast

Advertisements
Track Severe Weather on mobile